Nearby METAR Reports

 

EGQL - Leuchars Raf, United Kingdom
Distance from station: SW 11mi, 17km
Updated: 16/11/2018 21:50
Mist, Mostly cloudy
Mist, Mostly cloudy
 Wind from ESE
Wind: ESE 12 mph , 19 km/h
Temperature: 10°C
Wind Chill: 7°C
Dew Point: 10°C
Humidity: 100%
Barometer: 1027 hPa
Summary: Mist
Clouds: Mostly cloudy
Visibility: 2 miles , 4 km
Cloud details: Mostly cloudy 91 m
Mostly cloudy 427 m
2018/11/16 21:50 EGQL 162150Z 12010KT 3500 BR BKN003 BKN014 10/10 Q1027 YLO2
EGPN - Dundee/Riverside, United Kingdom
Distance from station: WSW 13mi, 20km
Updated: 16/11/2018 20:20
NOT Current
Mist, Overcast
Mist, Overcast
 Wind from E
Wind: E 8 mph , 13 km/h
Temperature: 11°C
Dew Point: 11°C
Humidity: 100%
Barometer: 1027 hPa
Summary: Mist
Clouds: Overcast
Visibility: 1 mile , 2 km
Cloud details: Overcast 91 m
2018/11/16 20:20 EGPN 162020Z 09007KT 1800 BR OVC003 11/11 Q1027
 
EGPH - Edinburgh Airpor, United Kingdom
Distance from station: SSW 46mi, 74km
Updated: 16/11/2018 22:20
Mist, Partly cloudy
Mist, Partly cloudy
 Wind from ENE
Wind: ENE 7 mph , 11 km/h
Temperature: 9°C
Wind Chill: 7°C
Dew Point: 9°C
Humidity: 100%
Barometer: 1026 hPa
Summary: Mist
Clouds: Partly cloudy
Visibility: 3 miles , 5 km
Cloud details: Partly cloudy 518 m
2018/11/16 22:20 EGPH 162220Z 06006KT 5000 BR SCT017 09/09 Q1026
EGPD - Aberdeen/Dyce, United Kingdom
Distance from station: NNE 51mi, 82km
Updated: 16/11/2018 22:20
Mist, Overcast
Mist, Overcast
 Wind from SSE
Wind: SSE 10 mph , 17 km/h
Temperature: 10°C
Wind Chill: 8°C
Dew Point: 10°C
Humidity: 100%
Barometer: 1028 hPa
Summary: Mist
Clouds: Overcast
Visibility: 3 miles , 5 km
Cloud details: Overcast 61 m
2018/11/16 22:20 EGPD 162220Z 16009KT 4700 BR OVC002 10/10 Q1028 TEMPO 2000